Time;durP1;ratioP1;P1;durP2;ratioP2;P2;SDS_P1;SDS_P2;PMS_P1;PMS_P2;Temp;Humidity;BMP_temperature;BMP_pressure;BME280_temperature;BME280_humidity;BME280_pressure;Samples;Min_cycle;Max_cycle;Signal;HPM_P1;HPM_P2
2022/03/31 00:00:48;;;;;;;10.32;7.40;;;;;;;4.59;72.67;100141.03;5006034;28;20105;-61
2022/03/31 00:03:19;;;;;;;9.38;6.20;;;;;;;4.57;72.69;100137.72;5013514;28;20037;-59
2022/03/31 00:05:45;;;;;;;9.30;6.80;;;;;;;4.55;72.80;100134.47;5025847;28;20081;-59
2022/03/31 00:08:15;;;;;;;8.70;6.82;;;;;;;4.40;73.09;100118.31;5025676;28;20041;-60
2022/03/31 00:10:49;;;;;;;10.20;7.38;;;;;;;4.44;73.43;100121.50;5008448;28;20041;-60
2022/03/31 00:13:18;;;;;;;9.32;7.38;;;;;;;4.46;73.23;100130.75;5006246;28;20076;-59
2022/03/31 00:15:44;;;;;;;9.32;7.65;;;;;;;4.44;73.35;100126.66;5016021;28;20516;-59
2022/03/31 00:18:11;;;;;;;10.98;7.90;;;;;;;4.39;73.83;100128.69;5029554;28;20037;-59
2022/03/31 00:23:58;;;;;;;11.02;8.13;;;;;;;4.31;74.39;100121.53;5010468;28;20048;-62
2022/03/31 00:26:23;;;;;;;11.60;9.30;;;;;;;4.21;74.31;100123.06;5028743;28;20033;-60
2022/03/31 00:28:49;;;;;;;10.98;9.05;;;;;;;4.21;74.54;100131.56;5029397;28;20453;-63
2022/03/31 00:31:14;;;;;;;11.10;9.15;;;;;;;4.13;74.33;100123.56;5022796;28;20072;-60
2022/03/31 00:33:39;;;;;;;11.25;9.25;;;;;;;4.10;74.65;100125.50;5021101;28;20061;-60
2022/03/31 00:36:05;;;;;;;13.00;10.07;;;;;;;4.01;74.35;100119.22;5029009;28;20041;-60
2022/03/31 00:38:30;;;;;;;12.10;9.88;;;;;;;4.02;74.66;100126.03;4992846;28;20041;-59
2022/03/31 00:40:56;;;;;;;13.35;10.13;;;;;;;3.94;74.71;100123.09;5009661;28;20022;-60
2022/03/31 00:43:21;;;;;;;11.00;9.45;;;;;;;3.94;75.63;100123.09;5008993;28;20025;-63
2022/03/31 00:45:47;;;;;;;11.60;9.32;;;;;;;3.91;75.80;100123.31;5009256;28;20551;-59
2022/03/31 00:48:14;;;;;;;12.10;9.38;;;;;;;3.84;75.90;100122.06;5019025;28;20040;-60
2022/03/31 00:50:39;;;;;;;12.02;8.98;;;;;;;3.82;76.67;100118.78;5028919;28;20033;-61
2022/03/31 00:53:05;;;;;;;11.68;9.02;;;;;;;3.77;77.45;100115.69;5010530;28;20458;-62
2022/03/31 00:55:31;;;;;;;10.95;8.52;;;;;;;3.75;77.56;100122.66;5028551;28;20649;-59
2022/03/31 00:57:57;;;;;;;13.40;9.23;;;;;;;3.65;77.65;100113.00;5029004;28;20025;-59
2022/03/31 01:00:23;;;;;;;12.65;9.02;;;;;;;3.67;77.99;100121.44;5010676;28;20032;-59
2022/03/31 01:02:49;;;;;;;11.70;8.73;;;;;;;3.57;78.42;100110.09;5005240;28;20032;-63
2022/03/31 01:05:14;;;;;;;11.68;9.82;;;;;;;3.59;78.34;100118.50;5022394;28;20026;-59
2022/03/31 01:07:40;;;;;;;11.80;9.65;;;;;;;3.51;78.46;100123.31;5013545;28;20425;-60
2022/03/31 01:10:08;;;;;;;10.80;9.63;;;;;;;3.45;78.76;100116.03;5009205;28;20458;-62
2022/03/31 01:12:34;;;;;;;12.27;10.40;;;;;;;3.40;79.03;100120.63;5025801;28;20848;-59
2022/03/31 01:15:19;;;;;;;12.63;9.90;;;;;;;3.43;79.37;100117.84;5020704;28;20117;-64
2022/03/31 01:17:46;;;;;;;12.07;10.63;;;;;;;3.32;79.13;100110.00;5020493;28;20029;-60
2022/03/31 01:20:16;;;;;;;13.23;10.63;;;;;;;3.28;79.38;100109.38;5026552;28;20032;-63
2022/03/31 01:22:43;;;;;;;12.65;10.23;;;;;;;3.31;79.79;100105.81;5026127;28;20868;-61
2022/03/31 01:25:09;;;;;;;11.63;10.27;;;;;;;3.33;79.25;100093.72;5008357;28;20025;-60
2022/03/31 01:27:36;;;;;;;12.45;10.45;;;;;;;3.23;80.69;100095.22;5025943;28;20060;-60
2022/03/31 01:30:05;;;;;;;12.38;10.73;;;;;;;3.18;81.52;100092.94;5028436;28;20515;-61
2022/03/31 01:32:30;;;;;;;;;;;;;;;3.26;79.73;100084.75;4993474;28;20235;-59
2022/03/31 01:34:57;;;;;;;12.95;11.00;;;;;;;3.13;81.59;100093.22;5012266;28;19923;-60
2022/03/31 01:37:23;;;;;;;13.05;11.07;;;;;;;3.06;81.82;100089.41;5019858;28;20038;-60
2022/03/31 01:39:48;;;;;;;11.75;10.38;;;;;;;3.03;81.65;100089.59;5008413;28;20041;-61
2022/03/31 01:42:14;;;;;;;11.82;10.55;;;;;;;2.98;82.14;100086.47;5007939;28;20029;-60
2022/03/31 01:44:40;;;;;;;12.40;10.98;;;;;;;2.98;82.58;100083.91;5021079;28;20037;-61
2022/03/31 01:47:06;;;;;;;12.50;10.98;;;;;;;2.97;83.02;100084.84;5014778;28;20556;-59
2022/03/31 01:49:31;;;;;;;13.05;11.15;;;;;;;2.92;83.59;100081.75;5002868;28;20535;-64
2022/03/31 01:51:57;;;;;;;12.60;11.30;;;;;;;2.88;83.11;100085.44;5015354;28;20493;-60
2022/03/31 01:54:22;;;;;;;10.32;9.20;;;;;;;2.83;83.22;100087.44;5021195;23;20056;-59
2022/03/31 01:56:48;;;;;;;9.70;8.48;;;;;;;2.71;83.30;100083.06;4996686;28;20045;-64
2022/03/31 01:59:14;;;;;;;9.05;7.90;;;;;;;2.72;83.81;100079.59;4988263;28;20030;-60
2022/03/31 02:01:40;;;;;;;8.07;7.25;;;;;;;2.63;84.20;100073.28;4993259;28;20054;-65
2022/03/31 02:04:05;;;;;;;7.80;6.57;;;;;;;2.62;84.04;100074.19;4986943;28;20022;-60
2022/03/31 02:06:31;;;;;;;6.97;5.43;;;;;;;2.62;83.98;100069.91;4987699;28;20559;-60
2022/03/31 02:08:57;;;;;;;6.60;5.10;;;;;;;2.54;83.98;100069.56;4987002;28;20038;-60
2022/03/31 02:11:22;;;;;;;6.50;4.80;;;;;;;2.47;83.86;100075.97;4987825;28;20030;-59
2022/03/31 02:13:48;;;;;;;6.13;4.68;;;;;;;2.32;83.42;100071.75;4988010;28;20030;-60
2022/03/31 02:16:14;;;;;;;5.50;4.43;;;;;;;2.28;83.76;100080.50;4997937;28;20032;-59
2022/03/31 02:18:40;;;;;;;5.25;4.38;;;;;;;2.19;84.21;100081.06;5007078;28;20124;-60
2022/03/31 02:21:06;;;;;;;4.95;3.88;;;;;;;2.05;84.08;100080.13;5005558;28;20152;-60
2022/03/31 02:23:31;;;;;;;5.07;3.60;;;;;;;1.99;83.94;100070.25;4999114;28;20034;-63
2022/03/31 02:25:57;;;;;;;4.78;3.40;;;;;;;1.97;83.86;100071.25;4998093;28;20030;-59
2022/03/31 02:28:22;;;;;;;4.20;3.15;;;;;;;1.84;84.41;100058.38;4999627;28;20037;-62
2022/03/31 02:30:48;;;;;;;4.47;3.42;;;;;;;1.75;84.79;100056.34;5007289;28;20030;-62
2022/03/31 02:33:13;;;;;;;3.85;3.30;;;;;;;1.71;85.14;100059.97;5007023;28;20029;-62
2022/03/31 02:35:38;;;;;;;4.10;3.20;;;;;;;1.73;84.88;100063.28;5006508;28;20096;-59
2022/03/31 02:38:04;;;;;;;4.50;3.50;;;;;;;1.66;84.92;100062.78;4992081;28;20038;-61
2022/03/31 02:40:29;;;;;;;4.55;3.50;;;;;;;1.62;85.18;100065.63;4987199;28;20034;-59
2022/03/31 02:42:55;;;;;;;4.55;3.42;;;;;;;1.47;85.11;100057.88;4987778;28;20062;-59
2022/03/31 02:45:20;;;;;;;4.45;3.40;;;;;;;1.50;85.73;100067.13;4987172;28;20054;-63
2022/03/31 02:47:46;;;;;;;4.13;3.45;;;;;;;1.45;85.43;100059.72;4994796;28;20117;-62
2022/03/31 02:50:13;;;;;;;4.00;3.38;;;;;;;1.39;85.99;100060.06;5003419;28;20413;-63
2022/03/31 02:55:28;;;;;;;4.13;3.20;;;;;;;1.36;85.70;100060.22;5015451;28;20472;-59
2022/03/31 02:57:54;;;;;;;3.55;3.10;;;;;;;1.29;85.68;100058.91;5025758;28;20026;-60
2022/03/31 03:00:20;;;;;;;4.43;3.20;;;;;;;1.24;86.47;100056.63;5025856;28;20075;-64
2022/03/31 03:02:46;;;;;;;4.95;3.30;;;;;;;1.28;86.30;100062.38;5026165;28;20436;-59
2022/03/31 03:05:11;;;;;;;4.10;3.55;;;;;;;1.30;86.30;100060.56;5026339;28;20389;-63
2022/03/31 03:07:37;;;;;;;3.53;3.00;;;;;;;1.29;86.38;100069.13;5026220;28;20173;-59
2022/03/31 03:10:03;;;;;;;3.80;3.15;;;;;;;1.21;86.29;100046.59;5026552;28;20112;-60
2022/03/31 03:12:28;;;;;;;3.63;3.20;;;;;;;1.20;85.98;100044.09;5008285;28;20029;-60
2022/03/31 03:14:54;;;;;;;3.85;3.03;;;;;;;1.21;86.06;100054.25;5026143;28;20072;-61
2022/03/31 03:17:19;;;;;;;3.75;3.10;;;;;;;1.20;86.74;100041.53;5024655;28;20033;-65
2022/03/31 03:19:44;;;;;;;4.55;3.45;;;;;;;1.19;87.29;100039.91;5011891;28;20355;-59
2022/03/31 03:22:10;;;;;;;4.93;3.65;;;;;;;1.20;87.38;100033.88;5010285;28;20473;-60
2022/03/31 03:24:35;;;;;;;3.70;3.20;;;;;;;1.09;87.05;100015.78;5025051;28;20084;-61
2022/03/31 03:27:00;;;;;;;5.95;2.88;;;;;;;1.11;87.49;100024.19;5018289;28;20038;-60
2022/03/31 03:29:26;;;;;;;4.30;3.28;;;;;;;1.10;87.43;100012.34;5017520;28;20107;-59
2022/03/31 03:31:52;;;;;;;3.67;3.10;;;;;;;1.02;87.20;100000.78;5025886;28;20028;-61
2022/03/31 03:34:17;;;;;;;4.07;3.15;;;;;;;1.06;87.66;100007.38;5025425;28;20025;-59
2022/03/31 03:36:43;;;;;;;4.00;3.20;;;;;;;1.04;87.77;100004.09;5021826;28;20021;-64
2022/03/31 03:39:11;;;;;;;3.88;3.15;;;;;;;1.03;88.03;100007.56;5006437;28;20371;-60
2022/03/31 03:41:37;;;;;;;3.53;2.90;;;;;;;1.02;87.68;100016.09;5006312;28;20072;-61
2022/03/31 03:44:03;;;;;;;3.60;3.00;;;;;;;0.97;87.91;100004.50;5006254;28;20033;-61
2022/03/31 03:46:28;;;;;;;3.15;2.83;;;;;;;0.98;87.55;100019.75;5006248;28;20104;-59
2022/03/31 03:48:54;;;;;;;3.15;2.70;;;;;;;0.96;87.94;100021.56;5012783;28;20108;-63
2022/03/31 03:51:19;;;;;;;3.78;2.80;;;;;;;0.97;87.67;100010.44;5019081;28;20033;-65
2022/03/31 03:53:44;;;;;;;2.92;2.50;;;;;;;0.91;87.39;100007.41;5014760;28;20123;-60
2022/03/31 03:56:10;;;;;;;3.72;2.95;;;;;;;0.94;87.76;100015.72;5012348;28;20077;-62
2022/03/31 03:58:35;;;;;;;4.55;3.10;;;;;;;0.96;87.39;100026.66;5017821;28;20734;-60
2022/03/31 04:01:01;;;;;;;3.45;2.97;;;;;;;0.96;87.78;100029.22;5027685;28;20029;-59
2022/03/31 04:03:26;;;;;;;4.22;2.90;;;;;;;0.97;87.55;100041.06;5012742;28;20029;-61
2022/03/31 04:05:51;;;;;;;4.53;3.25;;;;;;;0.97;87.21;100040.25;5021369;28;20525;-60
2022/03/31 04:08:17;;;;;;;3.58;3.00;;;;;;;0.98;87.22;100037.63;5013035;28;20037;-62
2022/03/31 04:10:43;;;;;;;4.05;3.45;;;;;;;0.98;87.15;100029.97;5014760;28;20021;-59
2022/03/31 04:13:08;;;;;;;4.95;3.53;;;;;;;0.97;87.65;100018.09;5023371;28;20021;-59
2022/03/31 04:15:34;;;;;;;5.47;3.17;;;;;;;1.02;87.80;100021.22;4995471;28;20026;-61
2022/03/31 04:17:59;;;;;;;3.80;2.85;;;;;;;1.05;87.58;100025.34;5008356;28;20030;-61
2022/03/31 04:20:24;;;;;;;3.58;2.97;;;;;;;1.01;87.55;100024.69;5013204;28;20469;-60
2022/03/31 04:22:50;;;;;;;2.88;2.40;;;;;;;1.02;87.19;100026.31;4993579;28;20029;-61
2022/03/31 04:25:15;;;;;;;2.72;2.33;;;;;;;0.99;87.02;100039.28;5014492;28;20032;-61
2022/03/31 04:27:40;;;;;;;3.63;2.45;;;;;;;0.91;87.38;100038.84;5008988;28;20029;-59
2022/03/31 04:30:11;;;;;;;3.00;2.40;;;;;;;0.84;87.56;100037.53;5011523;28;20466;-60
2022/03/31 04:32:37;;;;;;;3.70;2.67;;;;;;;0.77;87.49;100031.13;5011934;28;20390;-66
2022/03/31 04:35:04;;;;;;;3.10;2.30;;;;;;;0.70;87.87;100024.72;5013669;28;20486;-63
2022/03/31 04:37:29;;;;;;;3.17;2.53;;;;;;;0.72;88.80;100028.00;5013057;28;20033;-65
2022/03/31 04:39:54;;;;;;;3.55;2.70;;;;;;;0.69;88.93;100023.03;5001327;28;20358;-65
2022/03/31 04:42:20;;;;;;;3.85;2.72;;;;;;;0.68;89.18;100029.88;5009541;28;20033;-61
2022/03/31 04:44:46;;;;;;;3.83;2.70;;;;;;;0.65;89.23;100026.69;5012879;28;20048;-60
2022/03/31 04:47:11;;;;;;;3.22;2.65;;;;;;;0.61;89.17;100020.09;5009509;28;20037;-63
2022/03/31 04:49:37;;;;;;;3.45;2.70;;;;;;;0.63;89.66;100024.22;5008813;28;20026;-61
2022/03/31 04:52:02;;;;;;;3.47;2.53;;;;;;;0.64;89.88;100036.06;5008762;28;20493;-62
2022/03/31 04:54:28;;;;;;;3.58;2.70;;;;;;;0.63;90.23;100033.56;5009711;28;20083;-61
2022/03/31 04:56:53;;;;;;;2.95;2.40;;;;;;;0.61;89.72;100046.44;5009107;28;20073;-60
2022/03/31 04:59:18;;;;;;;4.65;2.60;;;;;;;0.60;90.04;100038.84;5007490;28;20121;-60
2022/03/31 05:01:44;;;;;;;3.30;2.47;;;;;;;0.55;89.72;100041.66;5016222;28;20097;-58
2022/03/31 05:04:09;;;;;;;3.38;2.63;;;;;;;0.48;89.67;100036.06;5009101;28;20112;-59
2022/03/31 05:06:35;;;;;;;3.10;2.42;;;;;;;0.42;89.72;100033.81;5026501;28;20473;-59
2022/03/31 05:09:02;;;;;;;4.22;2.42;;;;;;;0.38;89.82;100028.94;5028945;28;20029;-59
2022/03/31 05:11:27;;;;;;;3.78;2.70;;;;;;;0.37;90.34;100033.22;5026031;28;20025;-59
2022/03/31 05:13:52;;;;;;;3.78;2.67;;;;;;;0.34;90.29;100032.56;5008761;28;20030;-60
2022/03/31 05:16:18;;;;;;;3.45;2.67;;;;;;;0.31;90.48;100038.66;5009130;28;20022;-59
2022/03/31 05:18:43;;;;;;;3.83;2.78;;;;;;;0.28;90.24;100031.16;5009120;28;20580;-60
2022/03/31 05:21:08;;;;;;;3.55;2.70;;;;;;;0.27;90.86;100026.94;5008812;28;20108;-63
2022/03/31 05:23:34;;;;;;;3.88;2.80;;;;;;;0.25;90.62;100033.88;5009920;28;20576;-59
2022/03/31 05:25:59;;;;;;;3.72;2.60;;;;;;;0.24;90.61;100037.34;5019786;28;20056;-60
2022/03/31 05:28:24;;;;;;;3.88;2.90;;;;;;;0.18;90.90;100046.13;5011491;28;20029;-64
2022/03/31 05:30:50;;;;;;;4.15;3.17;;;;;;;0.16;90.87;100039.44;5023681;28;20065;-59
2022/03/31 05:33:15;;;;;;;3.72;3.10;;;;;;;0.17;91.04;100046.16;5011248;28;20425;-59
2022/03/31 05:35:40;;;;;;;4.57;3.33;;;;;;;0.14;91.15;100036.97;5020584;28;20028;-59
2022/03/31 05:38:06;;;;;;;4.65;3.42;;;;;;;0.13;91.19;100034.50;5014582;28;20034;-61
2022/03/31 05:40:32;;;;;;;5.15;3.70;;;;;;;0.12;91.39;100032.88;5013073;28;20049;-62
2022/03/31 05:42:57;;;;;;;5.38;3.67;;;;;;;0.06;91.71;100017.84;5015345;28;20092;-60
2022/03/31 05:45:25;;;;;;;6.05;4.05;;;;;;;0.13;91.80;100029.41;5010547;28;20018;-60
2022/03/31 05:47:52;;;;;;;6.22;4.43;;;;;;;0.12;91.73;100027.75;5008697;28;20038;-59
2022/03/31 05:50:17;;;;;;;5.32;4.20;;;;;;;0.10;91.96;100034.66;5014667;28;20029;-61
2022/03/31 05:52:43;;;;;;;6.43;4.30;;;;;;;0.11;91.98;100032.00;5015256;28;20033;-62
2022/03/31 05:55:11;;;;;;;6.40;4.60;;;;;;;0.09;92.16;100040.66;5014563;28;20049;-61
2022/03/31 05:57:37;;;;;;;5.85;4.75;;;;;;;0.11;91.80;100036.28;5014623;28;20439;-59
2022/03/31 06:00:07;;;;;;;5.93;4.90;;;;;;;0.10;92.10;100044.84;5015165;28;21034;-66
2022/03/31 06:02:32;;;;;;;6.57;5.20;;;;;;;0.12;92.17;100043.06;5009582;28;20652;-62
2022/03/31 06:04:57;;;;;;;6.72;5.25;;;;;;;0.15;92.41;100048.81;5013822;28;20135;-61
2022/03/31 06:07:22;;;;;;;6.80;4.97;;;;;;;0.15;92.49;100048.00;5017009;28;20030;-61
2022/03/31 06:09:48;;;;;;;6.45;4.90;;;;;;;0.17;92.34;100046.16;5027495;28;20032;-59
2022/03/31 06:12:13;;;;;;;8.15;6.00;;;;;;;0.14;92.39;100041.25;5015244;28;20026;-59
2022/03/31 06:14:38;;;;;;;6.97;5.70;;;;;;;0.16;92.57;100039.44;5014492;28;20079;-60
2022/03/31 06:17:04;;;;;;;6.45;5.30;;;;;;;0.13;92.45;100029.41;5008209;28;20467;-59
2022/03/31 06:19:30;;;;;;;7.18;5.80;;;;;;;0.18;92.49;100032.56;5020984;28;20029;-66
2022/03/31 06:21:55;;;;;;;8.10;6.05;;;;;;;0.17;93.05;100025.78;5012697;28;20030;-60
2022/03/31 06:24:20;;;;;;;6.78;5.72;;;;;;;0.19;93.15;100034.19;5017485;28;20108;-59
2022/03/31 06:26:46;;;;;;;6.78;5.50;;;;;;;0.17;93.09;100031.72;5006547;28;20036;-64
2022/03/31 06:29:13;;;;;;;7.10;5.57;;;;;;;0.17;92.60;100041.06;5007211;28;20117;-66
2022/03/31 06:31:38;;;;;;;7.60;6.07;;;;;;;0.16;92.92;100040.25;5010809;28;20026;-61
2022/03/31 06:34:04;;;;;;;7.72;6.25;;;;;;;0.10;93.45;100032.09;5007758;28;20041;-61
2022/03/31 06:36:30;;;;;;;7.30;5.82;;;;;;;0.18;93.18;100037.66;5010925;28;20021;-58
2022/03/31 06:38:56;;;;;;;7.22;6.30;;;;;;;0.19;93.10;100039.28;5027116;28;20055;-61
2022/03/31 06:41:21;;;;;;;7.40;6.35;;;;;;;0.21;93.03;100042.56;5022367;28;20466;-64
2022/03/31 06:43:48;;;;;;;7.18;6.00;;;;;;;0.21;93.32;100042.56;5007630;28;20512;-59
2022/03/31 06:46:14;;;;;;;7.43;6.20;;;;;;;0.23;93.02;100038.22;5008009;28;20022;-62
2022/03/31 06:48:42;;;;;;;7.82;6.07;;;;;;;0.19;93.28;100029.91;5009032;28;20033;-59
2022/03/31 06:51:08;;;;;;;6.22;5.30;;;;;;;0.23;93.32;100044.16;5026711;28;20402;-60
2022/03/31 06:53:33;;;;;;;7.63;5.75;;;;;;;0.28;93.44;100038.81;5026329;28;20029;-62
2022/03/31 06:55:58;;;;;;;7.18;5.88;;;;;;;0.31;93.46;100035.28;5010488;28;20398;-61
2022/03/31 06:58:29;;;;;;;6.38;5.22;;;;;;;0.31;93.51;100028.44;5018871;28;20037;-64
2022/03/31 07:00:56;;;;;;;6.88;5.10;;;;;;;0.34;93.27;100033.38;5014157;28;20449;-59
2022/03/31 07:03:22;;;;;;;7.15;5.18;;;;;;;0.33;93.45;100029.19;5016068;28;20025;-66
2022/03/31 07:05:47;;;;;;;7.05;4.80;;;;;;;0.34;93.45;100028.28;5011574;28;20028;-61
2022/03/31 07:08:13;;;;;;;6.60;5.10;;;;;;;0.33;93.44;100026.63;5025900;28;20117;-59
2022/03/31 07:10:38;;;;;;;7.40;4.97;;;;;;;0.32;93.57;100017.34;5003809;28;20087;-59
2022/03/31 07:13:04;;;;;;;5.85;4.53;;;;;;;0.33;93.00;100021.53;5026590;28;20029;-59
2022/03/31 07:15:29;;;;;;;6.82;5.25;;;;;;;0.36;93.49;100021.38;5019937;28;20116;-59
2022/03/31 07:17:55;;;;;;;6.25;4.75;;;;;;;0.37;93.60;100025.56;5013487;28;20385;-62
2022/03/31 07:20:23;;;;;;;6.88;5.25;;;;;;;0.37;93.49;100023.03;5019291;28;20021;-59
2022/03/31 07:22:49;;;;;;;5.70;4.78;;;;;;;0.40;93.31;100022.88;5013914;28;20030;-63
2022/03/31 07:25:16;;;;;;;6.38;5.30;;;;;;;0.39;93.14;100028.03;5006981;28;20033;-64
2022/03/31 07:27:42;;;;;;;7.80;5.75;;;;;;;0.41;93.48;100028.81;5006980;28;20486;-59
2022/03/31 07:30:08;;;;;;;7.90;5.75;;;;;;;0.44;93.33;100029.44;5010141;28;20061;-62
2022/03/31 07:32:33;;;;;;;7.85;6.43;;;;;;;0.43;93.56;100019.34;5009918;28;20533;-62
2022/03/31 07:35:00;;;;;;;7.70;6.35;;;;;;;0.45;93.67;100023.44;5024313;28;20045;-58
2022/03/31 07:37:25;;;;;;;7.53;6.10;;;;;;;0.46;93.51;100024.25;5015987;28;20026;-66
2022/03/31 07:39:51;;;;;;;8.40;6.80;;;;;;;0.51;94.08;100025.66;5015514;28;20396;-58
2022/03/31 07:42:16;;;;;;;8.23;7.05;;;;;;;0.51;94.12;100025.66;5011067;28;20025;-61
2022/03/31 07:44:42;;;;;;;8.82;7.05;;;;;;;0.56;93.96;100029.72;5015411;28;20029;-59
2022/03/31 07:47:07;;;;;;;8.88;7.20;;;;;;;0.57;93.94;100024.53;5026379;28;20116;-61
2022/03/31 07:49:33;;;;;;;9.23;7.80;;;;;;;0.63;93.70;100025.91;5003004;28;20029;-59
2022/03/31 07:51:58;;;;;;;8.50;7.60;;;;;;;0.61;94.02;100014.97;5018175;28;20057;-61
2022/03/31 07:54:24;;;;;;;8.90;7.35;;;;;;;0.64;93.94;100019.94;5005702;28;20607;-61
2022/03/31 07:56:50;;;;;;;8.65;7.53;;;;;;;0.68;93.47;100008.63;5007212;28;20029;-59
2022/03/31 07:59:21;;;;;;;9.07;7.82;;;;;;;0.72;93.94;100016.06;5023959;28;20381;-64
2022/03/31 08:01:46;;;;;;;9.20;7.68;;;;;;;0.71;93.61;100016.16;5023102;28;20377;-64
2022/03/31 08:04:12;;;;;;;9.00;7.07;;;;;;;0.74;93.40;100021.06;5007390;28;20480;-60
2022/03/31 08:06:37;;;;;;;9.02;7.28;;;;;;;0.73;93.25;100019.44;5025686;28;20079;-58
2022/03/31 08:09:02;;;;;;;8.65;7.25;;;;;;;0.73;93.27;100024.53;4992036;28;20030;-62
2022/03/31 08:11:28;;;;;;;9.48;7.50;;;;;;;0.74;93.41;100021.06;5009512;28;20041;-62
2022/03/31 08:13:53;;;;;;;9.35;7.85;;;;;;;0.82;93.76;100024.03;5005896;28;20045;-58
2022/03/31 08:16:18;;;;;;;10.30;7.95;;;;;;;0.84;93.40;100029.06;5017479;28;20017;-63
2022/03/31 08:18:44;;;;;;;9.07;6.97;;;;;;;0.83;93.05;100030.78;5025747;28;20096;-60
2022/03/31 08:21:09;;;;;;;8.85;7.50;;;;;;;0.85;93.37;100028.97;5021003;28;20030;-59
2022/03/31 08:23:34;;;;;;;8.57;7.28;;;;;;;0.86;93.26;100025.53;5006785;28;20029;-63
2022/03/31 08:26:00;;;;;;;10.18;7.10;;;;;;;0.88;92.95;100018.59;5022500;28;20076;-61
2022/03/31 08:28:29;;;;;;;8.57;6.90;;;;;;;0.88;93.31;100021.16;5017632;28;20033;-60
2022/03/31 08:30:54;;;;;;;9.82;7.60;;;;;;;0.87;93.21;100016.97;4988430;28;20026;-61
2022/03/31 08:33:20;;;;;;;9.25;7.68;;;;;;;0.85;93.30;100018.75;5014474;28;20029;-60
2022/03/31 08:35:45;;;;;;;11.68;8.10;;;;;;;0.90;93.53;100013.41;5026854;28;20504;-61
2022/03/31 08:38:11;;;;;;;9.27;7.68;;;;;;;0.89;93.40;100016.88;5008868;28;20041;-61
2022/03/31 08:40:36;;;;;;;9.90;7.95;;;;;;;0.90;93.34;100016.78;5025418;28;20497;-60
2022/03/31 08:43:02;;;;;;;9.32;7.95;;;;;;;0.96;93.60;100016.44;5010697;28;20064;-59
2022/03/31 08:45:31;;;;;;;9.13;7.35;;;;;;;0.98;93.62;100019.75;5009429;28;21464;-58
2022/03/31 08:47:58;;;;;;;9.18;7.75;;;;;;;1.04;94.13;100029.63;5009365;28;20076;-65
2022/03/31 08:50:23;;;;;;;8.30;7.30;;;;;;;1.00;93.58;100015.38;5009395;28;20379;-60
2022/03/31 08:52:49;;;;;;;8.05;6.90;;;;;;;1.04;93.22;100019.41;5011540;28;20469;-64
2022/03/31 08:55:15;;;;;;;7.90;6.88;;;;;;;1.08;93.39;100019.22;4999957;28;20041;-59
2022/03/31 08:57:49;;;;;;;8.18;7.15;;;;;;;1.06;93.55;100012.50;5017702;28;20053;-62
2022/03/31 09:00:16;;;;;;;7.78;6.78;;;;;;;1.10;93.66;100028.47;5021129;28;20041;-59
2022/03/31 09:03:04;;;;;;;8.73;6.88;;;;;;;1.14;93.51;100024.00;5021217;28;20025;-59
2022/03/31 09:05:41;;;;;;;9.10;7.30;;;;;;;1.17;93.38;100021.28;5014238;28;20104;-58
2022/03/31 09:08:10;;;;;;;7.43;6.18;;;;;;;1.19;93.43;100022.03;5012104;28;20537;-59
2022/03/31 09:10:44;;;;;;;9.07;7.30;;;;;;;1.22;93.41;100026.97;4998771;28;20108;-59
2022/03/31 09:13:19;;;;;;;8.07;6.97;;;;;;;1.26;93.59;100013.94;5028450;28;20029;-61
2022/03/31 09:15:56;;;;;;;9.02;7.15;;;;;;;1.32;93.70;100020.44;5014650;28;20081;-60
2022/03/31 09:18:23;;;;;;;7.55;6.70;;;;;;;1.35;93.86;100022.00;5012190;28;20057;-59
2022/03/31 09:20:52;;;;;;;7.80;6.53;;;;;;;1.36;93.70;100019.34;5018711;28;20525;-59
2022/03/31 09:23:20;;;;;;;8.38;6.72;;;;;;;1.45;93.68;100018.00;5008927;28;20037;-59
2022/03/31 09:25:46;;;;;;;7.60;6.28;;;;;;;1.47;93.81;100031.53;5011163;28;20029;-59
2022/03/31 09:28:20;;;;;;;7.97;6.68;;;;;;;1.46;93.50;100025.59;5018980;28;20473;-66
2022/03/31 09:30:55;;;;;;;7.40;6.22;;;;;;;1.50;92.99;100024.50;5018333;28;20350;-63
2022/03/31 09:33:36;;;;;;;7.15;6.25;;;;;;;1.56;93.39;100031.81;5022340;28;20025;-60
2022/03/31 09:36:07;;;;;;;7.13;5.97;;;;;;;1.58;93.13;100026.63;5016532;28;20531;-63
2022/03/31 09:38:38;;;;;;;7.78;5.80;;;;;;;1.60;92.92;100022.22;5016021;28;20108;-61
2022/03/31 09:41:17;;;;;;;6.95;6.18;;;;;;;1.58;92.20;100030.00;5002366;28;20079;-59
2022/03/31 09:43:42;;;;;;;8.75;6.05;;;;;;;1.69;92.47;100026.00;4996177;28;20061;-59
2022/03/31 09:46:23;;;;;;;7.05;6.35;;;;;;;1.76;93.19;100022.19;5019084;28;20048;-60
2022/03/31 09:48:51;;;;;;;8.07;6.45;;;;;;;1.77;93.00;100024.63;5020856;28;20040;-59
2022/03/31 09:51:18;;;;;;;7.53;6.05;;;;;;;1.80;92.39;100023.66;5016821;28;20034;-59
2022/03/31 09:53:46;;;;;;;8.07;6.90;;;;;;;1.87;92.55;100030.06;5019025;28;20029;-62
2022/03/31 09:56:11;;;;;;;6.57;5.38;;;;;;;1.82;92.25;100024.38;5016922;28;20124;-65
2022/03/31 09:58:38;;;;;;;6.22;5.47;;;;;;;1.77;91.00;100039.16;5015882;28;20184;-61
2022/03/31 10:01:05;;;;;;;6.60;5.90;;;;;;;1.77;91.72;100028.94;5017454;28;20064;-61
2022/03/31 10:03:31;;;;;;;7.25;5.80;;;;;;;1.75;91.69;100025.66;5012093;28;20454;-60
2022/03/31 10:05:57;;;;;;;7.25;6.30;;;;;;;1.76;91.59;100028.13;5011551;28;20164;-62
2022/03/31 10:08:23;;;;;;;7.22;6.20;;;;;;;1.75;91.46;100025.66;5013673;28;20103;-60
2022/03/31 10:10:49;;;;;;;7.68;6.50;;;;;;;1.76;91.44;100019.63;5006952;28;20041;-61
2022/03/31 10:13:26;;;;;;;6.90;6.05;;;;;;;1.77;91.99;100028.94;5008703;28;20371;-59
2022/03/31 10:16:03;;;;;;;7.45;6.75;;;;;;;1.80;91.97;100023.66;4999657;28;20037;-63
2022/03/31 10:18:28;;;;;;;6.72;6.00;;;;;;;1.83;92.13;100023.47;5012624;28;20143;-62
2022/03/31 10:20:56;;;;;;;7.57;6.78;;;;;;;1.82;91.94;100014.16;5003989;28;20490;-59
2022/03/31 10:26:07;;;;;;;7.00;6.30;;;;;;;1.86;91.55;100013.88;5026838;28;20175;-59
2022/03/31 10:28:32;;;;;;;6.90;6.10;;;;;;;1.86;91.31;100013.06;5006186;28;20039;-59
2022/03/31 10:31:00;;;;;;;7.90;6.53;;;;;;;1.89;91.07;100017.16;5016211;28;20048;-63
2022/03/31 10:33:42;;;;;;;7.75;6.28;;;;;;;1.89;90.99;100012.88;5009138;28;20374;-64
2022/03/31 10:36:15;;;;;;;7.07;6.38;;;;;;;1.89;91.23;100012.88;5014526;28;20030;-60
2022/03/31 10:38:55;;;;;;;7.00;6.13;;;;;;;1.90;91.44;100014.53;5010047;28;20075;-58
2022/03/31 10:41:31;;;;;;;6.95;6.20;;;;;;;1.90;91.13;100009.44;5012667;28;20033;-61
2022/03/31 10:43:58;;;;;;;6.93;6.03;;;;;;;1.88;91.19;100000.19;5013821;28;20029;-59
2022/03/31 10:46:25;;;;;;;7.18;6.43;;;;;;;1.93;91.20;100006.69;5012812;28;20033;-59
2022/03/31 10:48:53;;;;;;;7.45;6.45;;;;;;;1.95;91.22;100007.44;5012791;28;20075;-61
2022/03/31 10:51:29;;;;;;;7.45;6.13;;;;;;;1.95;91.44;100002.31;5014040;28;20029;-60
2022/03/31 10:53:54;;;;;;;7.47;6.78;;;;;;;1.95;91.36;100002.31;5016096;28;20017;-58
2022/03/31 10:56:26;;;;;;;7.32;6.03;;;;;;;1.94;91.16;99998.09;5026174;28;20060;-64
2022/03/31 10:58:53;;;;;;;6.85;6.15;;;;;;;1.91;90.83;99995.72;5026261;28;20031;-63
2022/03/31 11:01:23;;;;;;;8.10;6.93;;;;;;;1.97;91.81;99995.38;5024786;28;20033;-59
2022/03/31 11:03:53;;;;;;;7.90;6.45;;;;;;;1.94;91.25;99985.31;5008821;28;20033;-60
2022/03/31 11:06:18;;;;;;;7.55;6.70;;;;;;;2.00;91.46;99995.16;5012124;28;20021;-59
2022/03/31 11:08:46;;;;;;;7.88;7.07;;;;;;;2.09;92.01;100004.88;5006847;28;20619;-59
2022/03/31 11:11:19;;;;;;;8.60;6.60;;;;;;;2.12;91.77;99999.59;5015115;28;20041;-59
2022/03/31 11:13:45;;;;;;;7.60;6.80;;;;;;;2.12;91.32;99999.59;5006253;28;20145;-61
2022/03/31 11:16:10;;;;;;;7.15;6.45;;;;;;;2.08;90.45;100008.34;5015299;28;20128;-59
2022/03/31 11:18:36;;;;;;;7.93;7.13;;;;;;;2.18;91.04;100002.66;5023396;28;20073;-61
2022/03/31 11:21:03;;;;;;;7.32;6.60;;;;;;;2.15;90.89;100007.97;4993013;28;20041;-59
2022/03/31 11:23:30;;;;;;;7.90;6.75;;;;;;;2.10;90.97;99996.28;4978225;28;20418;-59
2022/03/31 11:25:56;;;;;;;7.53;6.72;;;;;;;2.12;90.77;99989.34;5020095;28;20172;-60
2022/03/31 11:28:22;;;;;;;8.10;6.85;;;;;;;2.19;91.29;99994.09;5020593;28;20030;-59
2022/03/31 11:30:48;;;;;;;7.10;6.40;;;;;;;2.19;90.82;100000.03;5026055;28;20067;-64
2022/03/31 11:33:15;;;;;;;7.60;6.75;;;;;;;2.19;91.07;99988.97;5025976;28;20026;-59
2022/03/31 11:35:41;;;;;;;7.45;6.65;;;;;;;2.18;90.75;99992.44;5021973;28;20034;-58
2022/03/31 11:38:14;;;;;;;7.93;6.72;;;;;;;2.24;91.18;99994.63;5026282;28;20022;-59